Time;durP1;ratioP1;P1;durP2;ratioP2;P2;SDS_P1;SDS_P2;PMS_P1;PMS_P2;Temp;Humidity;BMP_temperature;BMP_pressure;BME280_temperature;BME280_humidity;BME280_pressure;Samples;Min_cycle;Max_cycle;Signal;HPM_P1;HPM_P2
2022/11/16 07:34:32;;;;;;;10.30;4.17;;;8.30;99.90;;;;;;5132958;27;20284;-78
2022/11/16 09:02:24;;;;;;;4.40;2.00;;;9.40;99.90;;;;;;5135430;27;20266;-79
2022/11/16 09:05:49;;;;;;;5.00;3.10;;;9.40;99.90;;;;;;5132303;27;20779;-77
2022/11/16 09:08:15;;;;;;;6.67;3.47;;;9.60;99.90;;;;;;5132254;27;20175;-78
2022/11/16 09:10:40;;;;;;;13.90;8.63;;;9.70;99.90;;;;;;5132132;27;20175;-77
2022/11/16 09:13:06;;;;;;;5.63;2.53;;;9.80;99.90;;;;;;5132152;27;20180;-76
2022/11/16 09:15:31;;;;;;;3.30;2.10;;;9.70;99.90;;;;;;5132450;27;20240;-77
2022/11/16 09:17:57;;;;;;;3.53;2.50;;;9.70;99.90;;;;;;5131808;27;20572;-77
2022/11/16 09:20:23;;;;;;;6.17;3.03;;;9.80;99.90;;;;;;5131950;27;20175;-77
2022/11/16 09:22:48;;;;;;;2.07;1.70;;;9.90;99.90;;;;;;5132241;27;20190;-78
2022/11/16 09:25:14;;;;;;;3.70;2.03;;;9.90;99.90;;;;;;5132019;27;20198;-77
2022/11/16 09:27:40;;;;;;;5.17;4.00;;;10.00;99.90;;;;;;5131864;27;20186;-77
2022/11/16 09:30:07;;;;;;;10.30;8.03;;;10.10;99.90;;;;;;5132419;27;20178;-77
2022/11/16 09:32:32;;;;;;;3.37;2.40;;;10.10;99.90;;;;;;5130828;28;20637;-77
2022/11/16 09:34:58;;;;;;;8.70;5.30;;;10.30;99.90;;;;;;5131981;27;20194;-77
2022/11/16 09:37:23;;;;;;;3.60;2.07;;;10.40;99.90;;;;;;5131582;27;20163;-76
2022/11/16 09:39:49;;;;;;;2.87;2.10;;;10.50;99.90;;;;;;5132197;27;20167;-75
2022/11/16 09:42:20;;;;;;;3.33;2.70;;;10.50;99.90;;;;;;5131270;27;20171;-76
2022/11/16 09:44:55;;;;;;;5.23;3.30;;;10.40;99.90;;;;;;5132777;27;20221;-76
2022/11/16 09:47:23;;;;;;;6.80;3.20;;;10.30;99.90;;;;;;5133160;27;20257;-75
2022/11/16 09:49:54;;;;;;;3.87;2.90;;;10.30;99.90;;;;;;5132175;28;20171;-79
2022/11/16 09:52:37;;;;;;;5.40;2.37;;;10.20;99.90;;;;;;5132076;28;20188;-77
2022/11/16 09:55:16;;;;;;;4.93;3.73;;;10.20;99.90;;;;;;5131968;27;20187;-79
2022/11/16 09:57:44;;;;;;;14.93;8.60;;;10.40;99.90;;;;;;5131470;27;20166;-78
2022/11/16 10:00:16;;;;;;;9.40;4.87;;;11.00;99.90;;;;;;5132870;27;20625;-77
2022/11/16 10:02:45;;;;;;;5.47;4.70;;;11.50;99.90;;;;;;5134289;27;20156;-77
2022/11/16 10:05:31;;;;;;;7.37;3.90;;;12.10;99.90;;;;;;5129903;28;20671;-78
2022/11/16 10:08:09;;;;;;;2.90;2.10;;;12.60;99.90;;;;;;5130036;28;20166;-77
2022/11/16 10:10:45;;;;;;;4.40;2.10;;;12.40;99.90;;;;;;5131196;27;20151;-77
2022/11/16 10:13:31;;;;;;;6.57;3.67;;;11.80;99.90;;;;;;5129871;28;20167;-78
2022/11/16 10:16:05;;;;;;;4.43;3.80;;;11.50;99.90;;;;;;5125201;27;20187;-77
2022/11/16 10:18:36;;;;;;;3.93;1.97;;;11.30;99.90;;;;;;5118260;28;20193;-77
2022/11/16 10:21:17;;;;;;;3.60;2.20;;;11.20;99.90;;;;;;5117717;28;20172;-78
2022/11/16 10:24:15;;;;;;;4.60;2.20;;;11.50;99.90;;;;;;5117493;28;20236;-79
2022/11/16 10:26:58;;;;;;;3.67;2.60;;;11.80;99.90;;;;;;5104015;28;20264;-78
2022/11/16 10:29:53;;;;;;;4.73;3.30;;;11.80;99.90;;;;;;5117859;28;20183;-79
2022/11/16 10:32:29;;;;;;;3.33;2.10;;;11.80;99.90;;;;;;5110523;28;20180;-78
2022/11/16 10:35:10;;;;;;;3.27;2.50;;;11.60;99.90;;;;;;5117237;28;20270;-77
2022/11/16 10:37:42;;;;;;;2.27;1.90;;;11.40;99.90;;;;;;5116938;28;20175;-76
2022/11/16 10:40:18;;;;;;;4.60;2.73;;;11.30;99.90;;;;;;5115464;28;20171;-77
2022/11/16 10:42:50;;;;;;;3.40;2.73;;;11.10;99.90;;;;;;5119434;28;20765;-79
2022/11/16 10:45:16;;;;;;;4.63;2.27;;;10.90;99.90;;;;;;5121613;28;20253;-77
2022/11/16 10:48:13;;;;;;;2.90;2.30;;;10.80;99.90;;;;;;5121817;28;20171;-77
2022/11/16 10:50:44;;;;;;;3.30;1.87;;;10.70;99.90;;;;;;5123197;28;20175;-78
2022/11/16 10:53:14;;;;;;;2.77;1.83;;;10.70;99.90;;;;;;5115747;28;20178;-78
2022/11/16 10:55:40;;;;;;;4.37;1.70;;;10.50;99.90;;;;;;5116933;28;20200;-77
2022/11/16 10:58:06;;;;;;;4.90;1.83;;;10.40;99.90;;;;;;5116069;28;20171;-75
2022/11/16 11:00:36;;;;;;;3.10;2.00;;;10.40;99.90;;;;;;5115803;28;20174;-75
2022/11/16 11:03:02;;;;;;;2.93;2.20;;;10.40;99.90;;;;;;5116621;28;20175;-78
2022/11/16 11:05:28;;;;;;;4.03;2.17;;;10.40;99.90;;;;;;5116422;28;20211;-77
2022/11/16 11:08:08;;;;;;;4.17;1.80;;;10.60;99.90;;;;;;5116533;28;20167;-78
2022/11/16 11:10:38;;;;;;;3.87;1.73;;;10.50;99.90;;;;;;5117333;28;20171;-77
2022/11/16 11:13:10;;;;;;;1.80;1.63;;;10.60;99.90;;;;;;5118716;28;20152;-77
2022/11/16 11:15:38;;;;;;;4.50;1.60;;;10.80;99.90;;;;;;5120196;28;20195;-75
2022/11/16 11:18:11;;;;;;;2.60;1.23;;;10.90;99.90;;;;;;5118357;28;20172;-77
2022/11/16 11:20:40;;;;;;;3.13;2.17;;;11.10;99.90;;;;;;5119860;28;20176;-77
2022/11/16 11:23:13;;;;;;;3.90;1.90;;;11.20;99.90;;;;;;5116273;28;20574;-76
2022/11/16 11:25:58;;;;;;;4.73;2.40;;;11.50;99.90;;;;;;5116614;28;20206;-79
2022/11/16 11:28:33;;;;;;;3.63;2.63;;;11.80;99.90;;;;;;5114997;28;20628;-76
2022/11/16 11:31:02;;;;;;;2.60;2.40;;;12.20;99.90;;;;;;5116025;28;20182;-77
2022/11/16 11:33:36;;;;;;;1.97;1.40;;;12.40;99.90;;;;;;5115769;28;20225;-77
2022/11/16 11:36:19;;;;;;;1.80;1.70;;;12.70;99.90;;;;;;5117955;28;20179;-76
2022/11/16 11:39:02;;;;;;;2.67;2.20;;;12.50;99.90;;;;;;5117696;28;20227;-77
2022/11/16 11:41:36;;;;;;;2.70;2.10;;;12.70;99.90;;;;;;5114632;28;20164;-78
2022/11/16 11:44:14;;;;;;;2.77;2.23;;;13.20;99.90;;;;;;5116475;28;20645;-78
2022/11/16 11:46:46;;;;;;;3.00;2.10;;;13.50;99.90;;;;;;5116332;28;20667;-78
2022/11/16 11:49:28;;;;;;;4.50;2.50;;;13.40;99.90;;;;;;5116194;28;20190;-77
2022/11/16 11:51:57;;;;;;;10.20;5.93;;;13.70;99.90;;;;;;5115918;28;20159;-77
2022/11/16 11:54:29;;;;;;;6.10;3.40;;;14.70;99.90;;;;;;5116125;28;20199;-79
2022/11/16 11:56:55;;;;;;;3.03;1.90;;;15.40;99.90;;;;;;5116651;28;20285;-80
2022/11/16 11:59:23;;;;;;;5.87;2.33;;;15.30;99.90;;;;;;5117252;28;20200;-78
2022/11/16 12:02:15;;;;;;;4.00;2.30;;;14.70;99.90;;;;;;5115383;28;20630;-77
2022/11/16 12:04:59;;;;;;;2.83;2.20;;;13.90;99.90;;;;;;5116946;28;20211;-78
2022/11/16 12:07:37;;;;;;;2.90;2.60;;;13.00;99.90;;;;;;5115550;28;20165;-77
2022/11/16 12:10:14;;;;;;;2.73;2.30;;;12.30;99.90;;;;;;5116654;28;20155;-78
2022/11/16 12:12:51;;;;;;;4.13;1.60;;;12.00;99.90;;;;;;5115777;28;20179;-77
2022/11/16 12:15:36;;;;;;;3.33;1.60;;;11.80;99.90;;;;;;5115685;28;20204;-78
2022/11/16 12:18:37;;;;;;;2.90;2.27;;;11.70;99.90;;;;;;5115464;28;20164;-78
2022/11/16 12:21:30;;;;;;;3.40;2.53;;;11.60;99.90;;;;;;5057049;28;20271;-78
2022/11/16 12:24:06;;;;;;;4.83;2.60;;;11.50;99.90;;;;;;5117360;28;20210;-79
2022/11/16 12:26:42;;;;;;;3.27;2.23;;;11.60;99.90;;;;;;5117047;28;20163;-79
2022/11/16 12:29:29;;;;;;;3.97;1.57;;;11.80;99.90;;;;;;5115671;28;20555;-78
2022/11/16 12:32:16;;;;;;;3.03;1.40;;;13.10;99.90;;;;;;5114485;28;20168;-79
2022/11/16 12:34:54;;;;;;;4.03;1.63;;;13.90;99.90;;;;;;5115120;28;20244;-78
2022/11/16 12:37:30;;;;;;;3.20;1.57;;;14.30;99.90;;;;;;5116368;28;20182;-80
2022/11/16 12:40:34;;;;;;;4.67;2.90;;;14.20;99.90;;;;;;5114478;28;20515;-78
2022/11/16 12:43:18;;;;;;;3.97;1.70;;;13.70;99.90;;;;;;5114875;28;20167;-77
2022/11/16 12:45:49;;;;;;;2.93;1.00;;;12.80;99.90;;;;;;5116887;28;20260;-78
2022/11/16 12:48:51;;;;;;;2.20;1.50;;;12.50;99.90;;;;;;5115272;28;20172;-79
2022/11/16 12:51:40;;;;;;;1.53;1.00;;;12.20;99.90;;;;;;5114589;28;20535;-77
2022/11/16 12:54:44;;;;;;;1.90;1.60;;;11.80;99.90;;;;;;5114719;28;20238;-77
2022/11/16 12:57:25;;;;;;;2.87;1.43;;;11.70;99.90;;;;;;5110937;28;20233;-76
2022/11/16 13:00:05;;;;;;;2.23;1.13;;;11.50;99.90;;;;;;5114541;28;20238;-77
2022/11/16 13:03:12;;;;;;;2.63;1.17;;;11.40;99.90;;;;;;5114476;28;20254;-77
2022/11/16 13:05:52;;;;;;;2.77;1.30;;;11.40;99.90;;;;;;5113544;28;20211;-79
2022/11/16 13:08:24;;;;;;;13.73;6.90;;;11.50;99.90;;;;;;5115882;28;20625;-78
2022/11/16 13:10:58;;;;;;;22.63;9.87;;;11.60;99.90;;;;;;5114690;28;20533;-77
2022/11/16 13:13:30;;;;;;;3.93;2.47;;;11.70;99.90;;;;;;5115909;28;20152;-78
2022/11/16 13:15:58;;;;;;;6.13;3.47;;;11.90;99.90;;;;;;5115079;28;20678;-78
2022/11/16 13:18:25;;;;;;;43.83;18.80;;;11.90;99.90;;;;;;5114854;28;20168;-77
2022/11/16 13:21:10;;;;;;;12.03;5.43;;;11.70;99.90;;;;;;5114180;28;20250;-76
2022/11/16 13:23:54;;;;;;;13.00;6.07;;;11.70;99.90;;;;;;5114681;28;20164;-77
2022/11/16 13:26:26;;;;;;;3.27;1.93;;;11.70;99.90;;;;;;5113997;28;20237;-77
2022/11/16 13:29:22;;;;;;;2.77;1.10;;;11.70;99.90;;;;;;5113870;28;20174;-79
2022/11/16 13:32:06;;;;;;;3.67;0.97;;;11.90;99.90;;;;;;5113890;28;20163;-77
2022/11/16 13:34:36;;;;;;;3.93;1.37;;;12.00;99.90;;;;;;5112492;28;20291;-76
2022/11/16 13:37:36;;;;;;;2.50;1.13;;;12.10;99.90;;;;;;5113618;28;20172;-77
2022/11/16 13:40:03;;;;;;;2.37;1.30;;;12.00;99.90;;;;;;5112458;28;20198;-76
2022/11/16 13:42:31;;;;;;;3.50;1.83;;;11.80;99.90;;;;;;5112258;28;20183;-77
2022/11/16 13:45:24;;;;;;;1.23;0.80;;;11.80;99.90;;;;;;5113972;28;20225;-77
2022/11/16 13:47:56;;;;;;;2.17;1.10;;;11.80;99.90;;;;;;5113921;28;20617;-77
2022/11/16 13:50:29;;;;;;;1.30;1.20;;;11.80;99.90;;;;;;5112581;28;20176;-78
2022/11/16 13:53:05;;;;;;;1.90;1.20;;;11.70;99.90;;;;;;5117884;28;20148;-77
2022/11/16 13:55:32;;;;;;;2.73;1.50;;;11.70;99.90;;;;;;5117152;28;20533;-77
2022/11/16 13:58:01;;;;;;;2.80;1.10;;;11.60;99.90;;;;;;5117837;27;20182;-78
2022/11/16 14:00:29;;;;;;;3.50;1.00;;;11.50;99.90;;;;;;5117295;28;20266;-79
2022/11/16 14:03:16;;;;;;;2.67;1.20;;;11.40;99.90;;;;;;5116720;28;20178;-77
2022/11/16 14:05:47;;;;;;;1.80;1.00;;;11.30;99.90;;;;;;5117981;27;20199;-77
2022/11/16 14:08:18;;;;;;;2.10;1.10;;;11.20;99.90;;;;;;5117421;28;20199;-78
2022/11/16 14:10:44;;;;;;;2.20;1.47;;;11.10;99.90;;;;;;5116688;28;20178;-77
2022/11/16 14:13:47;;;;;;;3.67;1.53;;;10.90;99.90;;;;;;5136298;27;20531;-77
2022/11/16 14:16:21;;;;;;;2.87;1.50;;;10.80;99.90;;;;;;5136131;27;20204;-78
2022/11/16 14:19:01;;;;;;;1.90;1.20;;;10.80;99.90;;;;;;5137491;27;20166;-76
2022/11/16 14:22:17;;;;;;;2.30;1.30;;;10.90;99.90;;;;;;5137717;27;20159;-76
2022/11/16 14:24:56;;;;;;;2.43;1.00;;;10.90;99.90;;;;;;5077006;28;20226;-77
2022/11/16 14:27:49;;;;;;;1.97;1.27;;;10.80;99.90;;;;;;5097185;28;20163;-76
2022/11/16 14:30:27;;;;;;;4.63;1.33;;;10.70;99.90;;;;;;5096578;28;20188;-77
2022/11/16 14:32:54;;;;;;;3.37;1.43;;;10.60;99.90;;;;;;5096750;28;20149;-78
2022/11/16 14:35:34;;;;;;;2.80;1.10;;;10.50;99.90;;;;;;5097236;28;20210;-78
2022/11/16 14:38:22;;;;;;;1.53;0.90;;;10.40;99.90;;;;;;5097308;28;20163;-79
2022/11/16 14:40:51;;;;;;;4.43;1.40;;;10.40;99.90;;;;;;5097337;28;20172;-79
2022/11/16 14:43:22;;;;;;;5.43;1.13;;;10.30;99.90;;;;;;5096747;28;20653;-78
2022/11/16 14:45:54;;;;;;;3.87;1.30;;;10.20;99.90;;;;;;5098020;28;20200;-79
2022/11/16 14:48:24;;;;;;;5.03;2.00;;;10.10;99.90;;;;;;5098511;28;20559;-78
2022/11/16 14:51:10;;;;;;;6.60;2.37;;;10.10;99.90;;;;;;5097014;28;20172;-79
2022/11/16 14:53:40;;;;;;;3.73;1.07;;;10.00;99.90;;;;;;5098260;28;20209;-79
2022/11/16 14:56:14;;;;;;;2.60;1.20;;;10.10;99.90;;;;;;5097048;28;20193;-79
2022/11/16 14:58:52;;;;;;;6.50;2.77;;;10.00;99.90;;;;;;5106108;28;20266;-78
2022/11/16 15:01:21;;;;;;;5.07;2.00;;;10.00;99.90;;;;;;5098700;28;20183;-77
2022/11/16 15:04:03;;;;;;;2.77;1.50;;;10.00;99.90;;;;;;5097303;28;20192;-78
2022/11/16 15:06:44;;;;;;;4.50;1.70;;;10.00;99.90;;;;;;5096095;28;20515;-79
2022/11/16 15:09:20;;;;;;;3.07;1.50;;;10.00;99.90;;;;;;5097216;28;20195;-78
2022/11/16 15:14:38;;;;;;;8.03;4.70;;;9.90;99.90;;;;;;5097703;28;20202;-79
2022/11/16 15:17:07;;;;;;;21.50;9.83;;;9.90;99.90;;;;;;5096856;28;20166;-79
2022/11/16 15:19:33;;;;;;;9.40;5.53;;;9.80;99.90;;;;;;5097647;28;20176;-79
2022/11/16 15:22:00;;;;;;;6.37;3.60;;;9.70;99.90;;;;;;5096942;28;20172;-78
2022/11/16 15:24:28;;;;;;;6.20;3.80;;;9.70;99.90;;;;;;5096740;28;20207;-77
2022/11/16 15:27:07;;;;;;;4.27;2.00;;;9.60;99.90;;;;;;5096946;28;20194;-79
2022/11/16 15:29:34;;;;;;;4.47;1.50;;;9.50;99.90;;;;;;5096449;28;20166;-78
2022/11/16 15:32:00;;;;;;;3.57;1.97;;;9.40;99.90;;;;;;5094819;28;20172;-78
2022/11/16 15:34:25;;;;;;;9.93;5.53;;;9.30;99.90;;;;;;5096220;28;20195;-77
2022/11/16 15:36:51;;;;;;;39.53;27.53;;;9.30;99.90;;;;;;5096347;28;20168;-78
2022/11/16 15:39:20;;;;;;;15.60;8.70;;;9.20;99.90;;;;;;5096444;28;20168;-78
2022/11/16 15:41:46;;;;;;;36.10;19.53;;;9.10;99.90;;;;;;5095332;28;20207;-80
2022/11/16 15:44:18;;;;;;;56.67;40.57;;;8.90;99.90;;;;;;5095588;28;20200;-77
2022/11/16 15:46:46;;;;;;;37.57;25.63;;;8.90;99.90;;;;;;5096042;28;20176;-79
2022/11/16 15:49:30;;;;;;;14.70;8.97;;;8.90;99.90;;;;;;5097429;28;20596;-78
2022/11/16 15:51:57;;;;;;;10.97;5.70;;;8.80;99.90;;;;;;5097720;28;20153;-78
2022/11/16 15:57:20;;;;;;;9.73;7.00;;;8.70;99.90;;;;;;5096351;28;20179;-77
2022/11/16 15:59:54;;;;;;;11.80;6.40;;;8.60;99.90;;;;;;5096527;28;20622;-79
2022/11/16 16:02:22;;;;;;;8.97;6.00;;;8.50;99.90;;;;;;5097185;28;20159;-77
2022/11/16 16:04:49;;;;;;;8.97;6.17;;;8.40;99.90;;;;;;5095748;28;20208;-77
2022/11/16 16:07:38;;;;;;;13.97;7.20;;;8.40;99.90;;;;;;5096453;28;20657;-78
2022/11/16 16:10:18;;;;;;;12.27;8.70;;;8.40;99.90;;;;;;5095552;28;20243;-80
2022/11/16 16:12:56;;;;;;;14.53;7.97;;;8.40;99.90;;;;;;5095771;28;20185;-77
2022/11/16 16:15:23;;;;;;;8.93;6.33;;;8.40;99.90;;;;;;5095154;28;20243;-77
2022/11/16 16:17:49;;;;;;;10.27;7.70;;;8.30;99.90;;;;;;5095295;28;20175;-78
2022/11/16 16:20:21;;;;;;;10.63;7.60;;;8.30;99.90;;;;;;5095483;28;20173;-77
2022/11/16 16:22:47;;;;;;;26.60;16.40;;;8.20;99.90;;;;;;5094114;28;20196;-78
2022/11/16 16:25:30;;;;;;;20.93;13.00;;;8.20;99.90;;;;;;5095425;28;20247;-79
2022/11/16 16:27:57;;;;;;;15.90;11.43;;;8.10;99.90;;;;;;5094156;28;20251;-76
2022/11/16 16:30:23;;;;;;;15.50;11.50;;;8.00;99.90;;;;;;5095203;28;20170;-78
2022/11/16 16:32:49;;;;;;;14.93;9.57;;;8.00;99.90;;;;;;5095421;28;20176;-80
2022/11/16 16:35:23;;;;;;;15.27;10.73;;;7.90;99.90;;;;;;5094674;28;20196;-77
2022/11/16 16:37:50;;;;;;;12.20;8.87;;;7.80;99.90;;;;;;5095366;28;20153;-77
2022/11/16 16:40:17;;;;;;;16.77;9.27;;;7.80;99.90;;;;;;5096462;28;20191;-77
2022/11/16 16:42:43;;;;;;;12.13;8.30;;;7.70;99.90;;;;;;5095915;28;20173;-79
2022/11/16 16:45:19;;;;;;;15.93;8.80;;;7.70;99.90;;;;;;5096809;28;20213;-78
2022/11/16 16:47:45;;;;;;;21.37;8.53;;;7.60;99.90;;;;;;5096904;28;20505;-78
2022/11/16 16:50:11;;;;;;;12.53;7.97;;;7.60;99.90;;;;;;5096624;28;20303;-78
2022/11/16 16:52:37;;;;;;;16.80;8.73;;;7.50;99.90;;;;;;5095229;28;20182;-80
2022/11/16 16:55:03;;;;;;;13.80;7.73;;;7.40;99.90;;;;;;5095377;28;20556;-77
2022/11/16 16:57:28;;;;;;;13.07;7.20;;;7.40;99.90;;;;;;5095169;28;20179;-77
2022/11/16 16:59:54;;;;;;;11.53;7.50;;;7.40;99.90;;;;;;5095362;28;20178;-78
2022/11/16 17:02:20;;;;;;;15.97;11.00;;;7.30;99.90;;;;;;5095268;28;20176;-76
2022/11/16 17:04:47;;;;;;;15.67;7.67;;;7.30;99.90;;;;;;5094165;28;20210;-76
2022/11/16 17:07:13;;;;;;;14.90;9.23;;;7.20;99.90;;;;;;5094465;28;20590;-75
2022/11/16 17:09:39;;;;;;;14.77;8.87;;;7.20;99.90;;;;;;5093599;28;20167;-76
2022/11/16 17:12:05;;;;;;;14.33;8.17;;;7.10;99.90;;;;;;5093690;28;20302;-76
2022/11/16 17:14:31;;;;;;;13.93;8.23;;;7.10;99.90;;;;;;5093482;28;20247;-75
2022/11/16 17:16:56;;;;;;;13.87;8.30;;;7.00;99.90;;;;;;5093960;28;20180;-75
2022/11/16 17:19:23;;;;;;;14.57;8.03;;;7.00;99.90;;;;;;5094554;28;20197;-77
2022/11/16 17:21:50;;;;;;;11.87;7.10;;;6.90;99.90;;;;;;5094109;28;20194;-77
2022/11/16 17:24:18;;;;;;;21.00;16.93;;;6.80;99.90;;;;;;5094065;28;20195;-77
2022/11/16 17:26:47;;;;;;;14.43;10.30;;;6.80;99.90;;;;;;5096836;28;20187;-76
2022/11/16 17:29:12;;;;;;;13.73;8.30;;;6.70;99.90;;;;;;5097083;28;20178;-78
2022/11/16 17:31:42;;;;;;;13.83;8.90;;;6.60;99.90;;;;;;5098521;28;20243;-76
2022/11/16 17:34:08;;;;;;;13.00;8.30;;;6.50;99.90;;;;;;5096672;28;20182;-77
2022/11/16 17:36:34;;;;;;;13.03;8.70;;;6.50;99.90;;;;;;5097895;28;20170;-75
2022/11/16 17:38:59;;;;;;;24.30;14.07;;;6.40;99.90;;;;;;5097668;28;20367;-76
2022/11/16 17:41:25;;;;;;;17.03;11.67;;;6.40;99.90;;;;;;5097213;28;20210;-77
2022/11/16 17:43:53;;;;;;;36.00;18.30;;;6.40;99.90;;;;;;5096490;28;20578;-76
2022/11/16 17:46:22;;;;;;;44.63;22.87;;;6.30;99.90;;;;;;5095257;28;20620;-80
2022/11/16 17:48:48;;;;;;;17.07;11.40;;;6.30;99.90;;;;;;5096117;28;20629;-77
2022/11/16 17:51:19;;;;;;;19.83;11.77;;;6.30;99.90;;;;;;5096358;28;20524;-77
2022/11/16 17:53:45;;;;;;;18.00;9.67;;;6.20;99.90;;;;;;5096012;28;20210;-78
2022/11/16 17:56:16;;;;;;;13.17;7.13;;;6.20;99.90;;;;;;5095586;28;20193;-77
2022/11/16 17:58:44;;;;;;;14.77;7.23;;;6.10;99.90;;;;;;5094219;28;20178;-77
2022/11/16 18:01:10;;;;;;;11.43;6.50;;;6.10;99.90;;;;;;5096223;28;20176;-78
2022/11/16 18:03:37;;;;;;;11.23;5.93;;;6.00;99.90;;;;;;5097902;28;20182;-78
2022/11/16 18:06:08;;;;;;;9.93;6.13;;;5.90;99.90;;;;;;5096678;28;20259;-78
2022/11/16 18:08:35;;;;;;;9.77;5.43;;;5.90;99.90;;;;;;5098053;28;20166;-77
2022/11/16 18:11:06;;;;;;;11.73;6.43;;;5.80;99.90;;;;;;5098035;28;20174;-78
2022/11/16 18:13:32;;;;;;;13.93;6.13;;;5.80;99.90;;;;;;5098021;28;20188;-77
2022/11/16 18:16:19;;;;;;;10.63;6.53;;;5.70;99.90;;;;;;5096660;28;20205;-78
2022/11/16 18:18:46;;;;;;;13.50;7.17;;;5.70;99.90;;;;;;5097716;28;20178;-78
2022/11/16 18:21:13;;;;;;;8.70;6.60;;;5.70;99.90;;;;;;5097872;28;20636;-77
2022/11/16 18:23:39;;;;;;;8.97;6.63;;;5.70;99.90;;;;;;5098082;28;20572;-78
2022/11/16 18:26:14;;;;;;;13.13;7.20;;;5.70;99.90;;;;;;5097975;28;20199;-77
2022/11/16 18:28:42;;;;;;;10.63;6.70;;;5.70;99.90;;;;;;5096185;28;20175;-77
2022/11/16 18:31:11;;;;;;;19.17;9.90;;;5.70;99.90;;;;;;5096378;28;20206;-77
2022/11/16 18:33:37;;;;;;;15.73;10.07;;;5.70;99.90;;;;;;5097339;28;20171;-76
2022/11/16 18:36:04;;;;;;;21.27;11.07;;;5.60;99.90;;;;;;5095858;28;20686;-77
2022/11/16 18:38:30;;;;;;;19.30;11.60;;;5.50;99.90;;;;;;5096885;28;20173;-78
2022/11/16 18:41:02;;;;;;;18.57;11.27;;;5.50;99.90;;;;;;5098250;28;20180;-78
2022/11/16 18:43:28;;;;;;;14.00;9.47;;;5.50;99.90;;;;;;5096246;28;20227;-76
2022/11/16 18:45:53;;;;;;;12.07;6.93;;;5.50;99.90;;;;;;5097242;28;20210;-78
2022/11/16 18:48:19;;;;;;;30.80;23.67;;;5.50;99.90;;;;;;5097818;28;20300;-78
2022/11/16 18:50:44;;;;;;;55.93;40.13;;;5.50;99.90;;;;;;5096314;28;20657;-78
2022/11/16 18:53:10;;;;;;;42.57;28.03;;;;;;;;;;5097979;28;20706;-77
2022/11/16 18:55:36;;;;;;;35.70;23.00;;;5.50;99.90;;;;;;5097394;28;20279;-77
2022/11/16 18:58:02;;;;;;;33.10;19.63;;;5.60;99.90;;;;;;5096955;28;20262;-78
2022/11/16 19:00:27;;;;;;;45.13;30.53;;;5.60;99.90;;;;;;5098264;28;20255;-78
2022/11/16 19:02:53;;;;;;;29.30;21.47;;;;;;;;;;5097209;28;20179;-78
2022/11/16 19:05:19;;;;;;;29.27;21.80;;;;;;;;;;5096920;28;20205;-78
2022/11/16 19:07:45;;;;;;;14.43;12.93;;;5.50;99.90;;;;;;5095762;28;20183;-77
2022/11/16 19:10:10;;;;;;;10.17;7.67;;;5.50;99.90;;;;;;5096943;28;20520;-77
2022/11/16 19:12:36;;;;;;;8.03;5.33;;;5.40;99.90;;;;;;5097494;28;20171;-79
